• Join FlightAware (Why Join?)
  • Login
  • US Flag 
11:59PM EDT


 

Airport Tracker/Info


-or-


 

Live Flight TrackerFlight Track Log ✈ N990JB ✈ 09-May-2013 ✈ KYIP - KAZO

Flight Track Log - Related Links

Times and Time Zones

All times are in EDT time to prevent confusion due to time zone crossing. See the N990JB flight status page for this flight to view local times or setup timezone preferences in your user account.

Time Position Orientation Groundspeed Altitude Reporting Facility
EDT Latitude Longitude Course Direction KTS MPH feet Rate Location/Type
07:21PM 42.2019 -83.5936 232° Southwest 125 144 2,500  Level Cleveland Center
07:22PM 42.1986 -83.6383 264° West 125 144 3,700 1,140 Climbing Cleveland Center
07:23PM 42.2056 -83.6919 280° West 133 153 4,900 1,140 Climbing Cleveland Center
07:24PM 42.2125 -83.7400 281° West 129 148 6,100 1,080 Climbing Cleveland Center
07:25PM 42.2156 -83.7850 275° West 133 153 7,200 840 Climbing Cleveland Center
07:26PM 42.2222 -83.8414 279° West 145 167 7,900 60 Climbing Cleveland Center
07:28PM 42.2500 -83.9168 270° West  Level FlightAware Approximate
07:31PM 42.2647 -84.1942 270° West 189 217 7,900  Level Chicago Center
07:32PM 42.2697 -84.2647 275° West 189 217 7,900  Level Chicago Center
07:33PM 42.2658 -84.3350 266° West 189 217 7,900  Level Chicago Center
07:34PM 42.2631 -84.4047 267° West 188 216 7,900  Level Chicago Center
07:35PM 42.2503 -84.3231 270° West  Level FlightAware Approximate
07:35PM 42.2614 -84.4744 268° West 187 215 7,900  Level Chicago Center
07:36PM 42.2504 -84.3811 270° West  Level FlightAware Approximate
07:36PM 42.2586 -84.5569 267° West 184 212 7,900  Level Chicago Center
07:37PM 42.2504 -84.4391 270° West  Level FlightAware Approximate
07:37PM 42.2583 -84.6286 270° West 189 217 7,900  Level Chicago Center
07:38PM 42.2475 -84.6958 258° West 186 214 7,900  Level Chicago Center
07:39PM 42.2344 -84.7636 255° West 192 221 7,900  Level Chicago Center
07:40PM 42.2231 -84.8314 257° West 189 217 7,900 -60 Level Chicago Center
07:41PM 42.2086 -84.9142 257° West 189 217 7,800 -540 Descending Chicago Center
07:42PM 42.1847 -84.9811 244° Southwest 198 228 6,800 -900 Descending Chicago Center
07:44PM 42.1619 -85.0528 247° West 206 237 6,000 -960 Descending Chicago Center
07:45PM 42.1417 -85.1222 249° West 204 235 4,900 -1,140 Descending Chicago Center
07:46PM 42.1236 -85.1897 250° West 197 227 3,700 -1,020 Descending Chicago Center
07:47PM 42.1014 -85.2658 249° West 186 214 2,800 -480 Descending Chicago Center
07:48PM 42.0911 -85.3267 257° West 174 200 2,800  Level Chicago Center
07:49PM 42.0989 -85.3844 280° West 169 194 2,800 -60 Level Chicago Center
07:50PM 42.1217 -85.4325 303° West 161 185 2,700 -180 Descending Chicago Center
07:51PM 42.1531 -85.4758 314° West 161 185 2,500 -300 Descending Chicago Center
07:52PM 42.1831 -85.5192 313° West 161 185 2,100 -660 Descending Chicago Center
07:53PM 42.2100 -85.5500 320° Northwest 146 168 1,200 -900 Descending Chicago Center